createdAt,value
2023-08-15T00:02:23.985Z,44.97
2023-08-15T00:04:50.547Z,44.64
2023-08-15T00:07:17.183Z,44.56
2023-08-15T00:09:43.687Z,44.32
2023-08-15T00:12:10.208Z,43.87
2023-08-15T00:14:36.827Z,45.34
2023-08-15T00:17:03.379Z,49.31
2023-08-15T00:19:30.027Z,53.29
2023-08-15T00:21:56.588Z,55.15
2023-08-15T00:24:23.179Z,56.12
2023-08-15T00:26:49.716Z,56.56
2023-08-15T00:29:16.278Z,56.19
2023-08-15T00:31:42.814Z,56.37
2023-08-15T00:34:09.307Z,54.44
2023-08-15T00:36:35.885Z,49.29
2023-08-15T00:39:04.114Z,46.70
2023-08-15T00:41:31.102Z,46.04
2023-08-15T00:43:59.466Z,45.72
2023-08-15T00:46:26.788Z,45.19
2023-08-15T00:48:53.319Z,44.85
2023-08-15T00:51:19.819Z,44.54
2023-08-15T00:53:46.349Z,44.29
2023-08-15T00:56:12.892Z,43.96
2023-08-15T00:58:39.445Z,45.78
2023-08-15T01:01:06.016Z,45.55
2023-08-15T01:03:32.655Z,51.89
2023-08-15T01:05:59.306Z,54.59
2023-08-15T01:08:25.879Z,55.73
2023-08-15T01:10:52.446Z,56.00
2023-08-15T01:13:21.198Z,55.48
2023-08-15T01:15:49.533Z,53.65
2023-08-15T01:18:25.221Z,48.48
2023-08-15T01:20:52.066Z,46.33
2023-08-15T01:23:19.288Z,45.88
2023-08-15T01:25:45.831Z,45.63
2023-08-15T01:28:12.919Z,45.22
2023-08-15T01:30:50.916Z,44.97
2023-08-15T01:33:20.552Z,44.56
2023-08-15T01:35:47.917Z,44.36
2023-08-15T01:38:18.391Z,43.96
2023-08-15T01:40:44.973Z,43.58
2023-08-15T01:43:11.593Z,46.73
2023-08-15T01:45:38.176Z,43.69
2023-08-15T01:48:04.966Z,45.67
2023-08-15T01:50:31.662Z,53.49
2023-08-15T01:52:58.263Z,55.50
2023-08-15T01:55:24.803Z,56.46
2023-08-15T01:57:51.319Z,56.37
2023-08-15T02:00:17.948Z,55.40
2023-08-15T02:02:44.525Z,52.93
2023-08-15T02:05:13.569Z,48.31
2023-08-15T02:07:40.505Z,46.25
2023-08-15T02:10:07.147Z,45.99
2023-08-15T02:12:33.703Z,45.60
2023-08-15T02:15:00.216Z,45.07
2023-08-15T02:17:26.743Z,44.80
2023-08-15T02:19:53.305Z,44.63
2023-08-15T02:22:19.848Z,44.48
2023-08-15T02:24:46.414Z,44.04
2023-08-15T02:27:13.000Z,43.83
2023-08-15T02:29:39.594Z,43.29
2023-08-15T02:32:06.176Z,45.31
2023-08-15T02:34:32.789Z,43.84
2023-08-15T02:36:59.344Z,50.65
2023-08-15T02:39:28.491Z,54.45
2023-08-15T02:41:55.049Z,55.98
2023-08-15T02:44:21.581Z,55.88
2023-08-15T02:46:48.133Z,55.38
2023-08-15T02:49:14.769Z,53.80
2023-08-15T02:51:41.318Z,48.93
2023-08-15T02:54:07.825Z,46.32
2023-08-15T02:56:34.481Z,46.07
2023-08-15T02:59:00.979Z,45.81
2023-08-15T03:01:27.601Z,45.41
2023-08-15T03:03:54.191Z,45.08
2023-08-15T03:06:20.841Z,44.82
2023-08-15T03:08:47.888Z,44.67
2023-08-15T03:11:14.481Z,44.30
2023-08-15T03:13:41.023Z,44.05
2023-08-15T03:16:07.603Z,43.69
2023-08-15T03:18:34.271Z,43.24
2023-08-15T03:21:02.703Z,45.60
2023-08-15T03:23:29.333Z,47.96
2023-08-15T03:25:59.212Z,50.39
2023-08-15T03:28:25.814Z,54.32
2023-08-15T03:30:52.560Z,55.73
2023-08-15T03:33:19.297Z,56.04
2023-08-15T03:35:49.831Z,55.05
2023-08-15T03:38:19.754Z,53.73
2023-08-15T03:40:47.413Z,48.33
2023-08-15T03:43:14.109Z,46.17
2023-08-15T03:45:40.865Z,46.10
2023-08-15T03:48:07.980Z,45.55
2023-08-15T03:50:37.835Z,45.10
2023-08-15T03:53:04.472Z,44.90
2023-08-15T03:55:31.087Z,44.69
2023-08-15T03:57:57.754Z,44.50
2023-08-15T04:00:24.461Z,44.34
2023-08-15T04:02:51.141Z,43.94
2023-08-15T04:05:19.013Z,46.77
2023-08-15T04:07:45.588Z,47.48
2023-08-15T04:10:14.839Z,53.46
2023-08-15T04:12:41.742Z,55.62
2023-08-15T04:15:08.317Z,55.69
2023-08-15T04:17:34.833Z,54.72
2023-08-15T04:20:01.487Z,53.17
2023-08-15T04:22:27.989Z,50.51
2023-08-15T04:24:54.484Z,46.28
2023-08-15T04:27:21.368Z,45.95
2023-08-15T04:29:48.123Z,45.82
2023-08-15T04:32:14.627Z,45.67
2023-08-15T04:34:41.141Z,45.34
2023-08-15T04:37:07.642Z,45.15
2023-08-15T04:39:34.818Z,44.98
2023-08-15T04:42:01.305Z,44.68
2023-08-15T04:44:27.829Z,44.33
2023-08-15T04:46:54.424Z,43.96
2023-08-15T04:49:20.961Z,43.70
2023-08-15T04:51:47.511Z,46.11
2023-08-15T04:54:14.025Z,44.23
2023-08-15T04:56:40.712Z,51.54
2023-08-15T04:59:07.514Z,55.21
2023-08-15T05:01:34.015Z,56.21
2023-08-15T05:04:00.660Z,55.86
2023-08-15T05:06:27.196Z,54.29
2023-08-15T05:08:53.676Z,51.85
2023-08-15T05:11:20.244Z,47.16
2023-08-15T05:13:46.822Z,45.85
2023-08-15T05:16:13.347Z,45.84
2023-08-15T05:18:39.946Z,45.54
2023-08-15T05:21:06.530Z,45.16
2023-08-15T05:23:33.101Z,44.75
2023-08-15T05:25:59.609Z,44.53
2023-08-15T05:28:26.193Z,44.36
2023-08-15T05:30:52.734Z,43.93
2023-08-15T05:33:19.280Z,43.73
2023-08-15T05:35:45.774Z,44.86
2023-08-15T05:38:12.320Z,46.28
2023-08-15T05:40:40.468Z,53.53
2023-08-15T05:43:07.148Z,55.47
2023-08-15T05:45:34.046Z,55.33
2023-08-15T05:48:00.950Z,53.91
2023-08-15T05:50:27.536Z,52.69
2023-08-15T05:52:54.053Z,49.65
2023-08-15T05:55:20.607Z,45.83
2023-08-15T05:57:47.151Z,45.62
2023-08-15T06:00:13.932Z,45.47
2023-08-15T06:02:40.748Z,45.20
2023-08-15T06:05:08.228Z,45.00
2023-08-15T06:07:34.825Z,44.87
2023-08-15T06:10:01.496Z,44.61
2023-08-15T06:12:28.035Z,44.54
2023-08-15T06:14:54.567Z,44.16
2023-08-15T06:17:21.343Z,46.14
2023-08-15T06:19:47.984Z,44.45
2023-08-15T06:22:16.382Z,52.04
2023-08-15T06:24:42.970Z,54.97
2023-08-15T06:27:09.506Z,55.53
2023-08-15T06:29:36.093Z,54.68
2023-08-15T06:32:02.606Z,52.82
2023-08-15T06:34:29.245Z,50.94
2023-08-15T06:36:55.903Z,47.08
2023-08-15T06:39:22.516Z,45.44
2023-08-15T06:41:49.107Z,45.55
2023-08-15T06:44:15.738Z,45.52
2023-08-15T06:46:42.359Z,45.01
2023-08-15T06:49:08.914Z,44.86
2023-08-15T06:51:35.489Z,44.68
2023-08-15T06:54:02.051Z,44.36
2023-08-15T06:56:28.581Z,44.18
2023-08-15T06:58:55.128Z,44.07
2023-08-15T07:01:21.753Z,45.83
2023-08-15T07:03:48.579Z,44.68
2023-08-15T07:06:15.254Z,51.98
2023-08-15T07:08:42.257Z,55.38
2023-08-15T07:11:08.848Z,56.17
2023-08-15T07:13:35.492Z,55.27
2023-08-15T07:16:02.096Z,53.91
2023-08-15T07:18:28.754Z,51.51
2023-08-15T07:20:55.380Z,47.65
2023-08-15T07:23:21.973Z,49.28
2023-08-15T07:25:48.712Z,50.45
2023-08-15T07:28:15.305Z,47.02
2023-08-15T07:30:43.246Z,47.25
2023-08-15T07:33:09.801Z,46.06
2023-08-15T07:35:36.360Z,45.61
2023-08-15T07:38:03.620Z,45.07
2023-08-15T07:40:30.304Z,44.73
2023-08-15T07:42:57.244Z,44.29
2023-08-15T07:45:23.811Z,44.11
2023-08-15T07:47:53.085Z,43.59
2023-08-15T07:50:20.249Z,44.98
2023-08-15T07:52:46.932Z,44.86
2023-08-15T07:55:13.562Z,53.08
2023-08-15T07:57:40.425Z,56.04
2023-08-15T08:00:08.325Z,57.28
2023-08-15T08:02:34.875Z,57.44
2023-08-15T08:05:01.546Z,56.59
2023-08-15T08:07:28.260Z,53.47
2023-08-15T08:09:55.048Z,47.88
2023-08-15T08:12:21.888Z,46.45
2023-08-15T08:14:57.086Z,46.36
2023-08-15T08:17:24.063Z,46.01
2023-08-15T08:19:50.628Z,45.99
2023-08-15T08:22:17.175Z,45.32
2023-08-15T08:24:43.712Z,45.40
2023-08-15T08:27:10.420Z,45.32
2023-08-15T08:29:36.985Z,44.96
2023-08-15T08:32:03.717Z,44.87
2023-08-15T08:34:30.250Z,44.49
2023-08-15T08:36:56.798Z,43.97
2023-08-15T08:39:31.854Z,46.10
2023-08-15T08:41:59.511Z,45.22
2023-08-15T08:44:26.336Z,52.65
2023-08-15T08:46:52.889Z,56.21
2023-08-15T08:49:19.482Z,57.29
2023-08-15T08:51:46.078Z,57.39
2023-08-15T08:54:12.616Z,56.59
2023-08-15T08:56:40.341Z,53.74
2023-08-15T08:59:06.970Z,48.08
2023-08-15T09:01:33.568Z,46.82
2023-08-15T09:04:00.134Z,46.48
2023-08-15T09:06:29.685Z,46.39
2023-08-15T09:08:58.518Z,45.95
2023-08-15T09:11:25.075Z,45.67
2023-08-15T09:13:51.631Z,45.18
2023-08-15T09:16:18.215Z,44.91
2023-08-15T09:18:44.776Z,44.85
2023-08-15T09:21:13.540Z,44.66
2023-08-15T09:23:41.712Z,44.45
2023-08-15T09:26:14.488Z,44.06
2023-08-15T09:28:42.118Z,43.94
2023-08-15T09:31:10.533Z,43.42
2023-08-15T09:33:39.921Z,43.77
2023-08-15T09:36:07.326Z,45.25
2023-08-15T09:38:33.858Z,45.21
2023-08-15T09:41:01.226Z,52.75
2023-08-15T09:43:27.878Z,55.79
2023-08-15T09:45:54.698Z,56.98
2023-08-15T09:48:21.287Z,55.73
2023-08-15T09:50:50.596Z,49.22
2023-08-15T09:53:17.183Z,47.10
2023-08-15T09:55:43.896Z,46.91
2023-08-15T09:58:10.571Z,46.43
2023-08-15T10:00:37.263Z,46.31
2023-08-15T10:03:09.926Z,46.21
2023-08-15T10:05:36.545Z,46.03
2023-08-15T10:08:03.137Z,45.52
2023-08-15T10:10:31.169Z,45.16
2023-08-15T10:12:57.691Z,44.81
2023-08-15T10:15:24.352Z,44.17
2023-08-15T10:17:51.249Z,43.62
2023-08-15T10:20:21.237Z,43.56
2023-08-15T10:22:58.837Z,43.24
2023-08-15T10:25:25.701Z,42.93
2023-08-15T10:27:53.168Z,43.13
2023-08-15T10:30:37.321Z,45.22
2023-08-15T10:33:24.222Z,44.99
2023-08-15T10:35:53.849Z,52.38
2023-08-15T10:38:21.455Z,56.02
2023-08-15T10:40:48.191Z,56.64
2023-08-15T10:43:15.460Z,55.62
2023-08-15T10:45:42.112Z,49.80
2023-08-15T10:48:09.396Z,47.10
2023-08-15T10:50:36.280Z,46.61
2023-08-15T10:53:06.138Z,46.04
2023-08-15T10:55:37.625Z,45.60
2023-08-15T10:58:05.321Z,45.40
2023-08-15T11:00:32.041Z,45.16
2023-08-15T11:02:58.666Z,45.00
2023-08-15T11:05:25.231Z,44.28
2023-08-15T11:07:51.799Z,43.88
2023-08-15T11:10:18.398Z,43.17
2023-08-15T11:12:50.893Z,42.73
2023-08-15T11:15:17.838Z,42.34
2023-08-15T11:17:47.898Z,42.15
2023-08-15T11:20:14.657Z,45.21
2023-08-15T11:22:41.365Z,43.42
2023-08-15T11:25:11.550Z,45.66
2023-08-15T11:27:46.356Z,52.47
2023-08-15T11:30:12.982Z,54.95
2023-08-15T11:32:39.689Z,55.90
2023-08-15T11:35:18.734Z,56.26
2023-08-15T11:37:45.344Z,50.33
2023-08-15T11:40:11.918Z,46.73
2023-08-15T11:42:38.760Z,46.04
2023-08-15T11:45:18.610Z,45.79
2023-08-15T11:48:03.878Z,45.14
2023-08-15T11:50:43.547Z,44.75
2023-08-15T11:53:17.314Z,44.70
2023-08-15T11:55:44.286Z,44.31
2023-08-15T11:58:23.532Z,43.90
2023-08-15T12:00:51.831Z,43.49
2023-08-15T12:03:18.388Z,43.13
2023-08-15T12:05:45.558Z,42.56
2023-08-15T12:11:37.203Z,43.94
2023-08-15T12:14:04.954Z,51.40
2023-08-15T12:16:31.868Z,54.46
2023-08-15T12:18:58.694Z,55.34
2023-08-15T12:21:25.306Z,56.20
2023-08-15T12:23:51.954Z,56.50
2023-08-15T12:26:18.581Z,54.44
2023-08-15T12:28:45.138Z,48.64
2023-08-15T12:31:11.868Z,46.62
2023-08-15T12:33:50.444Z,46.19
2023-08-15T12:36:17.074Z,45.85
2023-08-15T12:38:43.909Z,45.62
2023-08-15T12:41:10.624Z,44.95
2023-08-15T12:43:37.697Z,44.74
2023-08-15T12:46:04.435Z,44.46
2023-08-15T12:48:31.074Z,44.20
2023-08-15T12:50:57.840Z,43.74
2023-08-15T12:53:24.638Z,43.62
2023-08-15T12:55:51.280Z,43.20
2023-08-15T12:58:18.122Z,42.74
2023-08-15T13:00:44.773Z,42.63
2023-08-15T13:03:11.423Z,42.16
2023-08-15T13:05:38.017Z,41.74
2023-08-15T13:08:04.868Z,41.77
2023-08-15T13:10:31.412Z,41.96
2023-08-15T13:12:58.209Z,42.07
2023-08-15T13:15:25.548Z,46.37
2023-08-15T13:17:52.182Z,43.71
2023-08-15T13:20:18.812Z,46.79
2023-08-15T13:22:45.343Z,52.69
2023-08-15T13:25:11.985Z,54.92
2023-08-15T13:27:38.476Z,55.99
2023-08-15T13:30:05.396Z,56.90
2023-08-15T13:32:32.027Z,51.81
2023-08-15T13:34:58.596Z,47.25
2023-08-15T13:37:25.207Z,46.52
2023-08-15T13:39:54.732Z,46.20
2023-08-15T13:42:36.311Z,45.79
2023-08-15T13:45:08.660Z,45.17
2023-08-15T13:47:37.171Z,44.86
2023-08-15T13:50:04.326Z,44.50
2023-08-15T13:52:30.897Z,43.93
2023-08-15T13:54:57.490Z,43.47
2023-08-15T13:57:24.264Z,43.02
2023-08-15T13:59:51.012Z,42.46
2023-08-15T14:02:17.784Z,42.03
2023-08-15T14:04:44.328Z,41.83
2023-08-15T14:07:10.899Z,41.73
2023-08-15T14:09:37.415Z,41.79
2023-08-15T14:12:04.679Z,41.21
2023-08-15T14:14:31.286Z,45.38
2023-08-15T14:16:57.887Z,41.93
2023-08-15T14:19:24.523Z,46.15
2023-08-15T14:21:51.025Z,51.67
2023-08-15T14:24:17.661Z,53.51
2023-08-15T14:26:44.260Z,55.02
2023-08-15T14:29:10.891Z,52.22
2023-08-15T14:31:37.459Z,46.81
2023-08-15T14:34:05.098Z,45.86
2023-08-15T14:36:31.629Z,45.23
2023-08-15T14:38:58.372Z,44.87
2023-08-15T14:41:24.911Z,44.57
2023-08-15T14:43:51.522Z,44.17
2023-08-15T14:46:18.041Z,44.13
2023-08-15T14:48:44.633Z,43.93
2023-08-15T14:51:11.226Z,43.74
2023-08-15T14:53:37.768Z,43.38
2023-08-15T14:56:04.461Z,43.10
2023-08-15T14:58:31.055Z,45.65
2023-08-15T15:00:58.520Z,43.36
2023-08-15T15:03:25.094Z,47.58
2023-08-15T15:05:51.597Z,53.39
2023-08-15T15:08:18.179Z,55.37
2023-08-15T15:10:44.782Z,56.46
2023-08-15T15:13:11.324Z,56.67
2023-08-15T15:15:53.127Z,56.84
2023-08-15T15:18:20.152Z,53.02
2023-08-15T15:20:46.837Z,48.04
2023-08-15T15:23:13.444Z,46.68
2023-08-15T15:25:44.865Z,46.18
2023-08-15T15:28:11.374Z,45.51
2023-08-15T15:30:37.997Z,45.25
2023-08-15T15:33:04.635Z,45.46
2023-08-15T15:35:31.226Z,45.21
2023-08-15T15:37:57.820Z,44.81
2023-08-15T15:40:24.370Z,44.06
2023-08-15T15:42:50.911Z,43.73
2023-08-15T15:45:17.607Z,43.14
2023-08-15T15:47:44.297Z,42.61
2023-08-15T15:50:10.897Z,42.08
2023-08-15T15:52:37.440Z,44.22
2023-08-15T15:55:04.138Z,43.71
2023-08-15T15:57:30.667Z,50.64
2023-08-15T15:59:57.122Z,54.38
2023-08-15T16:02:24.043Z,55.69
2023-08-15T16:04:50.736Z,56.83
2023-08-15T16:07:17.682Z,56.28
2023-08-15T16:09:45.970Z,52.40
2023-08-15T16:12:12.549Z,47.66
2023-08-15T16:14:39.101Z,46.34
2023-08-15T16:17:05.681Z,45.87
2023-08-15T16:19:32.182Z,45.44
2023-08-15T16:21:58.823Z,44.99
2023-08-15T16:24:25.367Z,44.55
2023-08-15T16:26:51.927Z,44.44
2023-08-15T16:29:18.449Z,44.10
2023-08-15T16:31:45.047Z,43.63
2023-08-15T16:34:11.671Z,43.27
2023-08-15T16:36:38.239Z,42.93
2023-08-15T16:39:04.850Z,42.17
2023-08-15T16:41:31.512Z,41.74
2023-08-15T16:43:58.036Z,41.51
2023-08-15T16:46:24.600Z,43.32
2023-08-15T16:48:51.381Z,42.84
2023-08-15T16:51:17.893Z,50.37
2023-08-15T16:53:44.430Z,53.60
2023-08-15T16:56:11.049Z,54.95
2023-08-15T16:58:37.530Z,55.77
2023-08-15T17:01:04.148Z,56.16
2023-08-15T17:03:30.685Z,50.80
2023-08-15T17:05:57.243Z,47.22
2023-08-15T17:08:23.806Z,46.22
2023-08-15T17:10:50.328Z,45.91
2023-08-15T17:13:16.812Z,45.17
2023-08-15T17:15:43.334Z,44.84
2023-08-15T17:18:09.963Z,44.37
2023-08-15T17:20:36.506Z,44.20
2023-08-15T17:23:03.034Z,44.09
2023-08-15T17:25:29.586Z,43.58
2023-08-15T17:27:56.125Z,43.24
2023-08-15T17:30:22.669Z,42.79
2023-08-15T17:32:49.297Z,42.36
2023-08-15T17:35:15.881Z,43.27
2023-08-15T17:37:42.439Z,42.96
2023-08-15T17:40:09.148Z,43.89
2023-08-15T17:42:35.680Z,51.82
2023-08-15T17:45:02.652Z,54.52
2023-08-15T17:47:29.284Z,55.36
2023-08-15T17:49:56.313Z,55.81
2023-08-15T17:52:23.119Z,56.16
2023-08-15T17:54:49.925Z,54.05
2023-08-15T17:57:16.486Z,48.39
2023-08-15T17:59:43.032Z,46.35
2023-08-15T18:02:09.683Z,46.04
2023-08-15T18:04:36.276Z,45.53
2023-08-15T18:07:02.821Z,45.12
2023-08-15T18:09:29.946Z,44.64
2023-08-15T18:11:56.612Z,44.39
2023-08-15T18:14:23.220Z,44.25
2023-08-15T18:16:50.323Z,43.88
2023-08-15T18:19:21.032Z,43.69
2023-08-15T18:21:47.637Z,43.17
2023-08-15T18:24:14.200Z,42.63
2023-08-15T18:26:40.733Z,42.22
2023-08-15T18:29:07.307Z,41.77
2023-08-15T18:31:33.823Z,41.47
2023-08-15T18:34:00.335Z,44.22
2023-08-15T18:36:26.899Z,43.11
2023-08-15T18:38:53.497Z,50.51
2023-08-15T18:41:20.076Z,53.97
2023-08-15T18:43:46.677Z,55.42
2023-08-15T18:46:13.285Z,55.88
2023-08-15T18:48:40.225Z,53.38
2023-08-15T18:51:06.845Z,47.45
2023-08-15T18:53:33.469Z,46.16
2023-08-15T18:56:00.065Z,46.13
2023-08-15T18:58:26.879Z,45.83
2023-08-15T19:00:53.451Z,45.45
2023-08-15T19:03:20.192Z,44.81
2023-08-15T19:05:47.034Z,44.55
2023-08-15T19:08:14.223Z,44.14
2023-08-15T19:10:40.732Z,43.80
2023-08-15T19:13:07.289Z,43.63
2023-08-15T19:15:34.020Z,43.22
2023-08-15T19:18:00.739Z,42.58
2023-08-15T19:20:28.101Z,42.42
2023-08-15T19:22:54.683Z,44.14
2023-08-15T19:25:21.942Z,43.86
2023-08-15T19:27:50.248Z,51.29
2023-08-15T19:30:16.815Z,54.53
2023-08-15T19:32:43.471Z,55.53
2023-08-15T19:35:10.087Z,55.92
2023-08-15T19:37:38.888Z,54.66
2023-08-15T19:40:09.868Z,49.02
2023-08-15T19:42:41.372Z,46.53
2023-08-15T19:45:08.451Z,46.11
2023-08-15T19:47:35.143Z,45.69
2023-08-15T19:50:01.906Z,45.17
2023-08-15T19:52:28.411Z,44.94
2023-08-15T19:54:55.222Z,44.60
2023-08-15T19:57:21.779Z,44.45
2023-08-15T19:59:48.302Z,44.03
2023-08-15T20:02:15.140Z,43.84
2023-08-15T20:04:41.899Z,43.20
2023-08-15T20:07:08.474Z,42.94
2023-08-15T20:09:35.055Z,42.68
2023-08-15T20:12:01.536Z,45.67
2023-08-15T20:14:29.022Z,43.18
2023-08-15T20:16:55.749Z,46.72
2023-08-15T20:19:22.464Z,52.61
2023-08-15T20:21:49.413Z,54.80
2023-08-15T20:24:16.063Z,55.74
2023-08-15T20:26:42.681Z,56.02
2023-08-15T20:29:09.275Z,54.21
2023-08-15T20:31:35.928Z,48.32
2023-08-15T20:34:02.470Z,46.45
2023-08-15T20:36:29.010Z,46.39
2023-08-15T20:38:55.631Z,45.72
2023-08-15T20:41:22.372Z,45.32
2023-08-15T20:43:48.972Z,45.09
2023-08-15T20:46:15.598Z,44.80
2023-08-15T20:48:42.134Z,44.63
2023-08-15T20:51:08.709Z,44.19
2023-08-15T20:53:35.247Z,43.97
2023-08-15T20:56:01.871Z,43.68
2023-08-15T20:58:28.661Z,43.09
2023-08-15T21:00:56.142Z,42.60
2023-08-15T21:03:23.530Z,42.44
2023-08-15T21:05:50.133Z,42.10
2023-08-15T21:08:16.655Z,41.79
2023-08-15T21:10:43.121Z,42.14
2023-08-15T21:13:09.664Z,44.71
2023-08-15T21:15:36.247Z,44.76
2023-08-15T21:18:02.818Z,49.15
2023-08-15T21:20:29.481Z,53.36
2023-08-15T21:22:55.985Z,55.15
2023-08-15T21:25:22.476Z,55.40
2023-08-15T21:27:49.047Z,51.52
2023-08-15T21:30:15.662Z,46.69
2023-08-15T21:32:42.689Z,45.98
2023-08-15T21:35:09.317Z,45.54
2023-08-15T21:37:35.848Z,45.21
2023-08-15T21:40:02.452Z,44.87
2023-08-15T21:42:32.104Z,44.62
2023-08-15T21:45:00.414Z,44.28
2023-08-15T21:47:26.977Z,43.94
2023-08-15T21:49:54.728Z,43.70
2023-08-15T21:52:21.517Z,43.20
2023-08-15T21:54:48.145Z,42.39
2023-08-15T21:57:14.655Z,42.15
2023-08-15T21:59:41.324Z,44.51
2023-08-15T22:02:07.977Z,43.81
2023-08-15T22:04:34.691Z,50.88
2023-08-15T22:07:01.265Z,53.93
2023-08-15T22:09:27.852Z,55.02
2023-08-15T22:11:54.334Z,55.65
2023-08-15T22:14:22.857Z,55.05
2023-08-15T22:16:49.603Z,49.49
2023-08-15T22:19:16.374Z,46.30
2023-08-15T22:21:43.010Z,45.91
2023-08-15T22:24:09.557Z,45.73
2023-08-15T22:26:36.603Z,45.41
2023-08-15T22:29:03.873Z,45.13
2023-08-15T22:31:30.448Z,44.60
2023-08-15T22:33:57.005Z,44.19
2023-08-15T22:36:23.550Z,44.01
2023-08-15T22:38:50.139Z,43.62
2023-08-15T22:41:16.691Z,43.38
2023-08-15T22:43:43.307Z,42.85
2023-08-15T22:46:09.930Z,42.69
2023-08-15T22:48:36.753Z,42.43
2023-08-15T22:51:04.026Z,45.33
2023-08-15T22:53:30.589Z,44.05
2023-08-15T22:56:03.776Z,51.14
2023-08-15T22:58:30.372Z,54.21
2023-08-15T23:00:57.189Z,55.03
2023-08-15T23:03:26.836Z,55.14
2023-08-15T23:05:53.425Z,52.18
2023-08-15T23:08:19.898Z,46.92
2023-08-15T23:10:55.555Z,46.16
2023-08-15T23:13:22.145Z,45.93
2023-08-15T23:15:48.778Z,45.57
2023-08-15T23:18:15.442Z,45.17
2023-08-15T23:20:41.969Z,44.96
2023-08-15T23:23:08.465Z,44.73
2023-08-15T23:25:35.007Z,44.35
2023-08-15T23:28:01.556Z,44.37
2023-08-15T23:30:28.099Z,44.04
2023-08-15T23:32:54.654Z,43.42
2023-08-15T23:35:21.247Z,42.95
2023-08-15T23:37:47.813Z,42.48
2023-08-15T23:40:14.356Z,42.24
2023-08-15T23:42:41.162Z,42.21
2023-08-15T23:45:07.997Z,41.99
2023-08-15T23:47:34.689Z,44.77
2023-08-15T23:50:04.553Z,44.35
2023-08-15T23:52:30.998Z,49.92
2023-08-15T23:54:58.119Z,53.81
2023-08-15T23:57:25.055Z,55.54
2023-08-15T23:59:52.182Z,55.42
